sensor_id;sensor_type;location;lat;lon;timestamp;temperature;humidity
9118;DHT22;4594;50.994;7.126;2024-03-29T00:00:58;10.90;54.00
9118;DHT22;4594;50.994;7.126;2024-03-29T00:03:25;10.90;54.10
9118;DHT22;4594;50.994;7.126;2024-03-29T00:05:50;10.90;54.10
9118;DHT22;4594;50.994;7.126;2024-03-29T00:08:16;10.90;54.00
9118;DHT22;4594;50.994;7.126;2024-03-29T00:10:42;10.90;54.00
9118;DHT22;4594;50.994;7.126;2024-03-29T00:13:07;10.90;53.80
9118;DHT22;4594;50.994;7.126;2024-03-29T00:15:33;10.80;53.70
9118;DHT22;4594;50.994;7.126;2024-03-29T00:17:59;10.80;53.70
9118;DHT22;4594;50.994;7.126;2024-03-29T00:20:25;10.80;53.80
9118;DHT22;4594;50.994;7.126;2024-03-29T00:22:51;10.80;53.80
9118;DHT22;4594;50.994;7.126;2024-03-29T00:25:17;10.80;53.80
9118;DHT22;4594;50.994;7.126;2024-03-29T00:27:42;10.80;53.90
9118;DHT22;4594;50.994;7.126;2024-03-29T00:30:13;10.80;53.90
9118;DHT22;4594;50.994;7.126;2024-03-29T00:32:39;10.80;53.90
9118;DHT22;4594;50.994;7.126;2024-03-29T00:35:05;10.80;54.00
9118;DHT22;4594;50.994;7.126;2024-03-29T00:37:31;10.80;54.00
9118;DHT22;4594;50.994;7.126;2024-03-29T00:39:57;10.80;54.00
9118;DHT22;4594;50.994;7.126;2024-03-29T00:42:23;10.80;54.10
9118;DHT22;4594;50.994;7.126;2024-03-29T00:44:50;10.80;54.20
9118;DHT22;4594;50.994;7.126;2024-03-29T00:47:16;10.90;54.40
9118;DHT22;4594;50.994;7.126;2024-03-29T00:49:41;10.80;54.30
9118;DHT22;4594;50.994;7.126;2024-03-29T00:52:07;10.90;54.50
9118;DHT22;4594;50.994;7.126;2024-03-29T00:54:32;10.90;54.80
9118;DHT22;4594;50.994;7.126;2024-03-29T00:56:58;10.90;54.70
9118;DHT22;4594;50.994;7.126;2024-03-29T00:59:24;11.00;54.70
9118;DHT22;4594;50.994;7.126;2024-03-29T01:01:50;11.00;54.70
9118;DHT22;4594;50.994;7.126;2024-03-29T01:04:17;11.00;54.60
9118;DHT22;4594;50.994;7.126;2024-03-29T01:06:43;11.10;54.70
9118;DHT22;4594;50.994;7.126;2024-03-29T01:09:09;11.10;54.70
9118;DHT22;4594;50.994;7.126;2024-03-29T01:11:38;11.10;54.80
9118;DHT22;4594;50.994;7.126;2024-03-29T01:14:05;11.10;54.60
9118;DHT22;4594;50.994;7.126;2024-03-29T01:16:31;11.20;54.80
9118;DHT22;4594;50.994;7.126;2024-03-29T01:19:00;11.20;54.80
9118;DHT22;4594;50.994;7.126;2024-03-29T01:21:26;11.20;53.80
9118;DHT22;4594;50.994;7.126;2024-03-29T01:23:52;11.30;54.60
9118;DHT22;4594;50.994;7.126;2024-03-29T01:26:18;11.30;54.80
9118;DHT22;4594;50.994;7.126;2024-03-29T01:28:52;11.30;54.10
9118;DHT22;4594;50.994;7.126;2024-03-29T01:31:18;11.30;54.60
9118;DHT22;4594;50.994;7.126;2024-03-29T01:33:43;11.40;54.70
9118;DHT22;4594;50.994;7.126;2024-03-29T01:36:09;11.40;54.90
9118;DHT22;4594;50.994;7.126;2024-03-29T01:38:35;11.40;54.60
9118;DHT22;4594;50.994;7.126;2024-03-29T01:41:01;11.40;54.60
9118;DHT22;4594;50.994;7.126;2024-03-29T01:43:28;11.40;54.60
9118;DHT22;4594;50.994;7.126;2024-03-29T01:45:54;11.50;54.60
9118;DHT22;4594;50.994;7.126;2024-03-29T01:48:25;11.50;54.30
9118;DHT22;4594;50.994;7.126;2024-03-29T01:50:54;11.50;53.20
9118;DHT22;4594;50.994;7.126;2024-03-29T01:53:23;11.50;54.00
9118;DHT22;4594;50.994;7.126;2024-03-29T01:55:50;11.60;54.60
9118;DHT22;4594;50.994;7.126;2024-03-29T01:58:18;11.60;54.60
9118;DHT22;4594;50.994;7.126;2024-03-29T02:00:57;11.60;54.20
9118;DHT22;4594;50.994;7.126;2024-03-29T02:03:25;11.70;51.40
9118;DHT22;4594;50.994;7.126;2024-03-29T02:05:51;11.70;54.50
9118;DHT22;4594;50.994;7.126;2024-03-29T02:08:18;11.70;54.20
9118;DHT22;4594;50.994;7.126;2024-03-29T02:10:46;11.70;54.30
9118;DHT22;4594;50.994;7.126;2024-03-29T02:13:13;11.70;53.40
9118;DHT22;4594;50.994;7.126;2024-03-29T02:15:41;11.80;54.50
9118;DHT22;4594;50.994;7.126;2024-03-29T02:18:07;11.80;53.30
9118;DHT22;4594;50.994;7.126;2024-03-29T02:20:34;11.80;54.10
9118;DHT22;4594;50.994;7.126;2024-03-29T02:23:11;11.80;54.30
9118;DHT22;4594;50.994;7.126;2024-03-29T02:25:39;11.90;52.30
9118;DHT22;4594;50.994;7.126;2024-03-29T02:28:05;11.90;54.30
9118;DHT22;4594;50.994;7.126;2024-03-29T02:30:31;11.90;54.10
9118;DHT22;4594;50.994;7.126;2024-03-29T02:32:59;11.90;54.40
9118;DHT22;4594;50.994;7.126;2024-03-29T02:35:25;12.00;53.60
9118;DHT22;4594;50.994;7.126;2024-03-29T02:37:52;11.90;54.00
9118;DHT22;4594;50.994;7.126;2024-03-29T02:40:18;12.00;54.30
9118;DHT22;4594;50.994;7.126;2024-03-29T02:42:45;12.00;54.10
9118;DHT22;4594;50.994;7.126;2024-03-29T02:45:11;12.00;54.20
9118;DHT22;4594;50.994;7.126;2024-03-29T02:47:37;12.00;54.20
9118;DHT22;4594;50.994;7.126;2024-03-29T02:50:03;12.00;54.30
9118;DHT22;4594;50.994;7.126;2024-03-29T02:52:28;12.10;54.40
9118;DHT22;4594;50.994;7.126;2024-03-29T02:54:55;12.10;54.30
9118;DHT22;4594;50.994;7.126;2024-03-29T02:57:20;12.10;54.30
9118;DHT22;4594;50.994;7.126;2024-03-29T02:59:46;12.10;54.20
9118;DHT22;4594;50.994;7.126;2024-03-29T03:02:12;12.10;54.10
9118;DHT22;4594;50.994;7.126;2024-03-29T03:04:37;12.20;54.10
9118;DHT22;4594;50.994;7.126;2024-03-29T03:07:03;12.20;54.00
9118;DHT22;4594;50.994;7.126;2024-03-29T03:09:47;12.20;53.80
9118;DHT22;4594;50.994;7.126;2024-03-29T03:12:31;12.20;53.70
9118;DHT22;4594;50.994;7.126;2024-03-29T03:14:58;12.20;53.60
9118;DHT22;4594;50.994;7.126;2024-03-29T03:17:28;12.20;53.40
9118;DHT22;4594;50.994;7.126;2024-03-29T03:19:54;12.20;53.30
9118;DHT22;4594;50.994;7.126;2024-03-29T03:22:19;12.20;53.50
9118;DHT22;4594;50.994;7.126;2024-03-29T03:24:45;12.20;53.40
9118;DHT22;4594;50.994;7.126;2024-03-29T03:27:11;12.20;53.30
9118;DHT22;4594;50.994;7.126;2024-03-29T03:29:37;12.20;53.50
9118;DHT22;4594;50.994;7.126;2024-03-29T03:32:03;12.10;53.30
9118;DHT22;4594;50.994;7.126;2024-03-29T03:34:29;12.10;53.20
9118;DHT22;4594;50.994;7.126;2024-03-29T03:36:55;12.10;53.10
9118;DHT22;4594;50.994;7.126;2024-03-29T03:39:21;12.10;53.00
9118;DHT22;4594;50.994;7.126;2024-03-29T03:41:47;12.10;53.10
9118;DHT22;4594;50.994;7.126;2024-03-29T03:44:13;12.10;53.00
9118;DHT22;4594;50.994;7.126;2024-03-29T03:46:38;12.10;52.90
9118;DHT22;4594;50.994;7.126;2024-03-29T03:49:04;12.10;52.80
9118;DHT22;4594;50.994;7.126;2024-03-29T03:51:30;12.10;52.90
9118;DHT22;4594;50.994;7.126;2024-03-29T03:53:56;12.10;53.00
9118;DHT22;4594;50.994;7.126;2024-03-29T03:56:21;12.10;52.90
9118;DHT22;4594;50.994;7.126;2024-03-29T03:58:47;12.10;52.90
9118;DHT22;4594;50.994;7.126;2024-03-29T04:01:13;12.10;52.90
9118;DHT22;4594;50.994;7.126;2024-03-29T04:03:38;12.10;53.00
9118;DHT22;4594;50.994;7.126;2024-03-29T04:06:05;12.10;53.00
9118;DHT22;4594;50.994;7.126;2024-03-29T04:08:31;12.10;52.90
9118;DHT22;4594;50.994;7.126;2024-03-29T04:10:58;12.10;52.90
9118;DHT22;4594;50.994;7.126;2024-03-29T04:13:28;12.10;53.00
9118;DHT22;4594;50.994;7.126;2024-03-29T04:15:53;12.10;53.00
9118;DHT22;4594;50.994;7.126;2024-03-29T04:18:25;12.10;53.00
9118;DHT22;4594;50.994;7.126;2024-03-29T04:20:57;12.10;53.00
9118;DHT22;4594;50.994;7.126;2024-03-29T04:23:23;12.10;51.20
9118;DHT22;4594;50.994;7.126;2024-03-29T04:25:58;12.10;52.80
9118;DHT22;4594;50.994;7.126;2024-03-29T04:28:25;12.10;50.70
9118;DHT22;4594;50.994;7.126;2024-03-29T04:30:59;12.10;52.40
9118;DHT22;4594;50.994;7.126;2024-03-29T04:33:26;12.10;50.60
9118;DHT22;4594;50.994;7.126;2024-03-29T04:35:59;12.10;52.30
9118;DHT22;4594;50.994;7.126;2024-03-29T04:38:30;12.00;50.60
9118;DHT22;4594;50.994;7.126;2024-03-29T04:40:57;12.00;51.70
9118;DHT22;4594;50.994;7.126;2024-03-29T04:43:25;11.90;51.00
9118;DHT22;4594;50.994;7.126;2024-03-29T04:46:08;11.90;51.10
9118;DHT22;4594;50.994;7.126;2024-03-29T04:48:37;11.80;49.70
9118;DHT22;4594;50.994;7.126;2024-03-29T04:51:04;11.80;51.20
9118;DHT22;4594;50.994;7.126;2024-03-29T04:53:30;11.70;51.00
9118;DHT22;4594;50.994;7.126;2024-03-29T04:55:59;11.70;51.20
9118;DHT22;4594;50.994;7.126;2024-03-29T04:58:27;11.60;50.60
9118;DHT22;4594;50.994;7.126;2024-03-29T05:00:54;11.50;50.70
9118;DHT22;4594;50.994;7.126;2024-03-29T05:03:20;11.50;51.90
9118;DHT22;4594;50.994;7.126;2024-03-29T05:05:51;11.40;51.80
9118;DHT22;4594;50.994;7.126;2024-03-29T05:08:18;11.30;51.60
9118;DHT22;4594;50.994;7.126;2024-03-29T05:10:45;11.30;51.90
9118;DHT22;4594;50.994;7.126;2024-03-29T05:13:11;11.20;52.00
9118;DHT22;4594;50.994;7.126;2024-03-29T05:15:37;11.10;52.10
9118;DHT22;4594;50.994;7.126;2024-03-29T05:18:03;11.10;52.30
9118;DHT22;4594;50.994;7.126;2024-03-29T05:20:30;11.00;52.50
9118;DHT22;4594;50.994;7.126;2024-03-29T05:22:57;10.90;52.70
9118;DHT22;4594;50.994;7.126;2024-03-29T05:25:23;10.90;52.80
9118;DHT22;4594;50.994;7.126;2024-03-29T05:27:49;10.90;53.20
9118;DHT22;4594;50.994;7.126;2024-03-29T05:30:15;10.80;53.40
9118;DHT22;4594;50.994;7.126;2024-03-29T05:32:41;10.80;53.70
9118;DHT22;4594;50.994;7.126;2024-03-29T05:35:08;10.80;53.90
9118;DHT22;4594;50.994;7.126;2024-03-29T05:37:35;10.80;54.00
9118;DHT22;4594;50.994;7.126;2024-03-29T05:40:02;10.80;54.10
9118;DHT22;4594;50.994;7.126;2024-03-29T05:42:32;10.80;54.40
9118;DHT22;4594;50.994;7.126;2024-03-29T05:45:00;10.80;54.60
9118;DHT22;4594;50.994;7.126;2024-03-29T05:47:26;10.80;54.80
9118;DHT22;4594;50.994;7.126;2024-03-29T05:49:51;10.80;54.90
9118;DHT22;4594;50.994;7.126;2024-03-29T05:52:17;10.90;55.30
9118;DHT22;4594;50.994;7.126;2024-03-29T05:54:44;10.90;55.30
9118;DHT22;4594;50.994;7.126;2024-03-29T05:57:11;10.90;55.30
9118;DHT22;4594;50.994;7.126;2024-03-29T05:59:37;10.90;55.50
9118;DHT22;4594;50.994;7.126;2024-03-29T06:02:04;10.90;55.60
9118;DHT22;4594;50.994;7.126;2024-03-29T06:04:30;10.90;55.80
9118;DHT22;4594;50.994;7.126;2024-03-29T06:07:00;10.90;56.00
9118;DHT22;4594;50.994;7.126;2024-03-29T06:09:26;11.00;56.40
9118;DHT22;4594;50.994;7.126;2024-03-29T06:11:54;11.00;56.40
9118;DHT22;4594;50.994;7.126;2024-03-29T06:14:20;11.00;56.60
9118;DHT22;4594;50.994;7.126;2024-03-29T06:17:04;11.00;56.70
9118;DHT22;4594;50.994;7.126;2024-03-29T06:19:57;11.10;56.80
9118;DHT22;4594;50.994;7.126;2024-03-29T06:22:25;11.10;55.90
9118;DHT22;4594;50.994;7.126;2024-03-29T06:24:58;11.10;57.20
9118;DHT22;4594;50.994;7.126;2024-03-29T06:27:25;11.20;57.40
9118;DHT22;4594;50.994;7.126;2024-03-29T06:29:51;11.20;57.50
9118;DHT22;4594;50.994;7.126;2024-03-29T06:32:17;11.20;57.50
9118;DHT22;4594;50.994;7.126;2024-03-29T06:34:44;11.20;57.80
9118;DHT22;4594;50.994;7.126;2024-03-29T06:37:10;11.30;58.00
9118;DHT22;4594;50.994;7.126;2024-03-29T06:39:36;11.30;58.20
9118;DHT22;4594;50.994;7.126;2024-03-29T06:42:02;11.40;58.40
9118;DHT22;4594;50.994;7.126;2024-03-29T06:44:29;11.40;58.50
9118;DHT22;4594;50.994;7.126;2024-03-29T06:46:54;11.40;58.50
9118;DHT22;4594;50.994;7.126;2024-03-29T06:49:20;11.40;58.60
9118;DHT22;4594;50.994;7.126;2024-03-29T06:51:46;11.50;58.80
9118;DHT22;4594;50.994;7.126;2024-03-29T06:54:11;11.50;58.90
9118;DHT22;4594;50.994;7.126;2024-03-29T06:56:37;11.60;59.00
9118;DHT22;4594;50.994;7.126;2024-03-29T06:59:03;11.60;59.00
9118;DHT22;4594;50.994;7.126;2024-03-29T07:01:29;11.70;59.30
9118;DHT22;4594;50.994;7.126;2024-03-29T07:03:56;11.70;59.40
9118;DHT22;4594;50.994;7.126;2024-03-29T07:06:21;11.80;59.40
9118;DHT22;4594;50.994;7.126;2024-03-29T07:08:47;11.80;59.60
9118;DHT22;4594;50.994;7.126;2024-03-29T07:11:13;11.90;59.90
9118;DHT22;4594;50.994;7.126;2024-03-29T07:13:39;11.90;60.00
9118;DHT22;4594;50.994;7.126;2024-03-29T07:16:05;12.00;60.40
9118;DHT22;4594;50.994;7.126;2024-03-29T07:18:32;12.10;60.60
9118;DHT22;4594;50.994;7.126;2024-03-29T07:20:58;12.10;60.70
9118;DHT22;4594;50.994;7.126;2024-03-29T07:23:24;12.20;60.70
9118;DHT22;4594;50.994;7.126;2024-03-29T07:26:01;12.30;60.60
9118;DHT22;4594;50.994;7.126;2024-03-29T07:28:28;12.30;58.90
9118;DHT22;4594;50.994;7.126;2024-03-29T07:30:54;12.40;60.90
9118;DHT22;4594;50.994;7.126;2024-03-29T07:33:21;12.40;61.00
9118;DHT22;4594;50.994;7.126;2024-03-29T07:35:55;12.50;61.40
9118;DHT22;4594;50.994;7.126;2024-03-29T07:38:22;12.50;61.20
9118;DHT22;4594;50.994;7.126;2024-03-29T07:40:49;12.60;62.10
9118;DHT22;4594;50.994;7.126;2024-03-29T07:43:15;12.70;62.20
9118;DHT22;4594;50.994;7.126;2024-03-29T07:45:44;12.70;62.00
9118;DHT22;4594;50.994;7.126;2024-03-29T07:48:17;12.80;60.90
9118;DHT22;4594;50.994;7.126;2024-03-29T07:50:44;12.90;60.50
9118;DHT22;4594;50.994;7.126;2024-03-29T07:53:12;12.90;61.90
9118;DHT22;4594;50.994;7.126;2024-03-29T07:55:39;13.00;62.10
9118;DHT22;4594;50.994;7.126;2024-03-29T07:58:06;13.00;61.90
9118;DHT22;4594;50.994;7.126;2024-03-29T08:00:34;13.10;62.20
9118;DHT22;4594;50.994;7.126;2024-03-29T08:03:00;13.10;62.20
9118;DHT22;4594;50.994;7.126;2024-03-29T08:05:29;13.20;62.10
9118;DHT22;4594;50.994;7.126;2024-03-29T08:07:55;13.20;61.00
9118;DHT22;4594;50.994;7.126;2024-03-29T08:10:21;13.30;62.10
9118;DHT22;4594;50.994;7.126;2024-03-29T08:12:47;13.30;62.00
9118;DHT22;4594;50.994;7.126;2024-03-29T08:15:13;13.40;62.30
9118;DHT22;4594;50.994;7.126;2024-03-29T08:17:39;13.40;62.40
9118;DHT22;4594;50.994;7.126;2024-03-29T08:20:05;13.50;62.50
9118;DHT22;4594;50.994;7.126;2024-03-29T08:22:31;13.50;62.60
9118;DHT22;4594;50.994;7.126;2024-03-29T08:25:00;13.60;63.00
9118;DHT22;4594;50.994;7.126;2024-03-29T08:27:27;13.60;62.80
9118;DHT22;4594;50.994;7.126;2024-03-29T08:29:53;13.70;63.00
9118;DHT22;4594;50.994;7.126;2024-03-29T08:32:19;13.80;63.50
9118;DHT22;4594;50.994;7.126;2024-03-29T08:34:45;13.80;64.00
9118;DHT22;4594;50.994;7.126;2024-03-29T08:37:10;13.90;64.20
9118;DHT22;4594;50.994;7.126;2024-03-29T08:39:36;14.10;64.50
9118;DHT22;4594;50.994;7.126;2024-03-29T08:42:03;14.20;64.70
9118;DHT22;4594;50.994;7.126;2024-03-29T08:44:33;14.30;64.30
9118;DHT22;4594;50.994;7.126;2024-03-29T08:46:59;14.50;63.30
9118;DHT22;4594;50.994;7.126;2024-03-29T08:49:28;14.40;63.80
9118;DHT22;4594;50.994;7.126;2024-03-29T08:51:56;14.50;63.50
9118;DHT22;4594;50.994;7.126;2024-03-29T08:54:22;14.60;63.10
9118;DHT22;4594;50.994;7.126;2024-03-29T08:56:48;14.60;63.10
9118;DHT22;4594;50.994;7.126;2024-03-29T08:59:14;14.70;63.10
9118;DHT22;4594;50.994;7.126;2024-03-29T09:01:44;14.70;62.80
9118;DHT22;4594;50.994;7.126;2024-03-29T09:04:10;14.80;62.00
9118;DHT22;4594;50.994;7.126;2024-03-29T09:06:39;14.80;62.20
9118;DHT22;4594;50.994;7.126;2024-03-29T09:09:06;14.80;60.90
9118;DHT22;4594;50.994;7.126;2024-03-29T09:11:32;14.80;62.20
9118;DHT22;4594;50.994;7.126;2024-03-29T09:13:58;14.90;62.40
9118;DHT22;4594;50.994;7.126;2024-03-29T09:16:25;14.90;62.50
9118;DHT22;4594;50.994;7.126;2024-03-29T09:18:51;15.00;62.80
9118;DHT22;4594;50.994;7.126;2024-03-29T09:21:17;15.00;62.90
9118;DHT22;4594;50.994;7.126;2024-03-29T09:23:45;15.00;62.90
9118;DHT22;4594;50.994;7.126;2024-03-29T09:26:11;15.10;62.80
9118;DHT22;4594;50.994;7.126;2024-03-29T09:28:39;15.10;62.70
9118;DHT22;4594;50.994;7.126;2024-03-29T09:31:05;15.20;62.80
9118;DHT22;4594;50.994;7.126;2024-03-29T09:33:31;15.20;62.80
9118;DHT22;4594;50.994;7.126;2024-03-29T09:35:58;15.30;62.40
9118;DHT22;4594;50.994;7.126;2024-03-29T09:38:27;15.30;62.20
9118;DHT22;4594;50.994;7.126;2024-03-29T09:41:10;15.40;61.00
9118;DHT22;4594;50.994;7.126;2024-03-29T09:43:41;15.40;58.90
9118;DHT22;4594;50.994;7.126;2024-03-29T09:46:10;15.40;60.90
9118;DHT22;4594;50.994;7.126;2024-03-29T09:48:37;15.50;62.10
9118;DHT22;4594;50.994;7.126;2024-03-29T09:51:05;15.50;62.10
9118;DHT22;4594;50.994;7.126;2024-03-29T09:53:34;15.50;62.10
9118;DHT22;4594;50.994;7.126;2024-03-29T09:56:06;15.60;61.90
9118;DHT22;4594;50.994;7.126;2024-03-29T09:58:34;15.60;61.40
9118;DHT22;4594;50.994;7.126;2024-03-29T10:01:02;15.70;62.80
9118;DHT22;4594;50.994;7.126;2024-03-29T10:03:30;15.80;63.30
9118;DHT22;4594;50.994;7.126;2024-03-29T10:05:57;15.90;63.30
9118;DHT22;4594;50.994;7.126;2024-03-29T10:08:27;15.90;63.80
9118;DHT22;4594;50.994;7.126;2024-03-29T10:10:56;16.00;63.50
9118;DHT22;4594;50.994;7.126;2024-03-29T10:13:23;16.20;64.20
9118;DHT22;4594;50.994;7.126;2024-03-29T10:15:50;16.20;63.70
9118;DHT22;4594;50.994;7.126;2024-03-29T10:18:19;16.30;63.70
9118;DHT22;4594;50.994;7.126;2024-03-29T10:20:45;16.30;63.50
9118;DHT22;4594;50.994;7.126;2024-03-29T10:23:12;16.30;63.80
9118;DHT22;4594;50.994;7.126;2024-03-29T10:25:37;16.50;64.30
9118;DHT22;4594;50.994;7.126;2024-03-29T10:28:03;16.50;64.00
9118;DHT22;4594;50.994;7.126;2024-03-29T10:30:29;16.60;64.40
9118;DHT22;4594;50.994;7.126;2024-03-29T10:32:56;16.60;63.60
9118;DHT22;4594;50.994;7.126;2024-03-29T10:35:22;16.70;63.20
9118;DHT22;4594;50.994;7.126;2024-03-29T10:37:51;16.80;63.60
9118;DHT22;4594;50.994;7.126;2024-03-29T10:40:21;16.80;63.70
9118;DHT22;4594;50.994;7.126;2024-03-29T10:42:50;16.90;63.30
9118;DHT22;4594;50.994;7.126;2024-03-29T10:45:17;17.00;64.20
9118;DHT22;4594;50.994;7.126;2024-03-29T10:47:44;16.90;64.90
9118;DHT22;4594;50.994;7.126;2024-03-29T10:50:14;17.10;65.30
9118;DHT22;4594;50.994;7.126;2024-03-29T10:52:43;17.10;63.60
9118;DHT22;4594;50.994;7.126;2024-03-29T10:55:12;17.20;65.20
9118;DHT22;4594;50.994;7.126;2024-03-29T10:57:41;17.20;63.80
9118;DHT22;4594;50.994;7.126;2024-03-29T11:00:12;17.30;64.00
9118;DHT22;4594;50.994;7.126;2024-03-29T11:03:19;17.30;63.80
9118;DHT22;4594;50.994;7.126;2024-03-29T11:05:55;17.40;59.80
9118;DHT22;4594;50.994;7.126;2024-03-29T11:08:28;17.50;63.20
9118;DHT22;4594;50.994;7.126;2024-03-29T11:11:00;17.50;64.30
9118;DHT22;4594;50.994;7.126;2024-03-29T11:13:49;17.60;64.00
9118;DHT22;4594;50.994;7.126;2024-03-29T11:16:18;17.50;59.50
9118;DHT22;4594;50.994;7.126;2024-03-29T11:18:46;17.60;63.80
9118;DHT22;4594;50.994;7.126;2024-03-29T11:21:14;17.60;63.40
9118;DHT22;4594;50.994;7.126;2024-03-29T11:23:52;17.60;63.10
9118;DHT22;4594;50.994;7.126;2024-03-29T11:26:19;17.60;61.40
9118;DHT22;4594;50.994;7.126;2024-03-29T11:28:49;17.70;64.10
9118;DHT22;4594;50.994;7.126;2024-03-29T11:31:16;17.70;62.30
9118;DHT22;4594;50.994;7.126;2024-03-29T11:36:22;17.70;62.90
9118;DHT22;4594;50.994;7.126;2024-03-29T11:38:57;17.80;60.90
9118;DHT22;4594;50.994;7.126;2024-03-29T11:41:25;17.90;61.30
9118;DHT22;4594;50.994;7.126;2024-03-29T11:43:55;17.90;62.60
9118;DHT22;4594;50.994;7.126;2024-03-29T11:46:22;17.90;62.90
9118;DHT22;4594;50.994;7.126;2024-03-29T11:48:49;18.10;63.10
9118;DHT22;4594;50.994;7.126;2024-03-29T11:51:19;18.00;62.30
9118;DHT22;4594;50.994;7.126;2024-03-29T11:53:47;18.00;61.80
9118;DHT22;4594;50.994;7.126;2024-03-29T11:56:16;18.00;62.30
9118;DHT22;4594;50.994;7.126;2024-03-29T11:58:41;18.00;61.60
9118;DHT22;4594;50.994;7.126;2024-03-29T12:01:08;18.00;61.50
9118;DHT22;4594;50.994;7.126;2024-03-29T12:03:38;18.10;61.30
9118;DHT22;4594;50.994;7.126;2024-03-29T12:06:05;18.00;59.50
9118;DHT22;4594;50.994;7.126;2024-03-29T12:08:32;18.00;60.10
9118;DHT22;4594;50.994;7.126;2024-03-29T12:11:00;18.10;59.50
9118;DHT22;4594;50.994;7.126;2024-03-29T12:13:27;17.90;59.40
9118;DHT22;4594;50.994;7.126;2024-03-29T12:15:54;17.90;59.40
9118;DHT22;4594;50.994;7.126;2024-03-29T12:18:21;17.90;59.30
9118;DHT22;4594;50.994;7.126;2024-03-29T12:20:49;17.80;58.60
9118;DHT22;4594;50.994;7.126;2024-03-29T12:23:17;17.70;58.80
9118;DHT22;4594;50.994;7.126;2024-03-29T12:25:44;17.70;58.80
9118;DHT22;4594;50.994;7.126;2024-03-29T12:28:12;17.60;58.60
9118;DHT22;4594;50.994;7.126;2024-03-29T12:30:47;17.50;58.50
9118;DHT22;4594;50.994;7.126;2024-03-29T12:33:18;17.50;56.80
9118;DHT22;4594;50.994;7.126;2024-03-29T12:35:50;17.30;57.30
9118;DHT22;4594;50.994;7.126;2024-03-29T12:38:19;17.30;57.70
9118;DHT22;4594;50.994;7.126;2024-03-29T12:40:47;17.30;58.60
9118;DHT22;4594;50.994;7.126;2024-03-29T12:43:15;17.20;58.40
9118;DHT22;4594;50.994;7.126;2024-03-29T12:45:46;17.10;58.30
9118;DHT22;4594;50.994;7.126;2024-03-29T12:48:14;17.10;58.40
9118;DHT22;4594;50.994;7.126;2024-03-29T12:50:43;17.00;58.30
9118;DHT22;4594;50.994;7.126;2024-03-29T12:53:11;16.90;58.00
9118;DHT22;4594;50.994;7.126;2024-03-29T12:55:42;16.90;57.70
9118;DHT22;4594;50.994;7.126;2024-03-29T12:58:11;16.70;57.60
9118;DHT22;4594;50.994;7.126;2024-03-29T13:00:38;16.70;58.90
9118;DHT22;4594;50.994;7.126;2024-03-29T13:03:05;16.60;59.00
9118;DHT22;4594;50.994;7.126;2024-03-29T13:05:32;16.50;59.40
9118;DHT22;4594;50.994;7.126;2024-03-29T13:08:05;16.40;59.50
9118;DHT22;4594;50.994;7.126;2024-03-29T13:10:32;16.40;59.40
9118;DHT22;4594;50.994;7.126;2024-03-29T13:12:58;16.30;59.70
9118;DHT22;4594;50.994;7.126;2024-03-29T13:15:25;16.30;59.60
9118;DHT22;4594;50.994;7.126;2024-03-29T13:17:54;16.30;59.50
9118;DHT22;4594;50.994;7.126;2024-03-29T13:20:22;16.20;59.90
9118;DHT22;4594;50.994;7.126;2024-03-29T13:22:50;16.20;60.00
9118;DHT22;4594;50.994;7.126;2024-03-29T13:25:18;16.20;60.00
9118;DHT22;4594;50.994;7.126;2024-03-29T13:27:46;16.20;60.30
9118;DHT22;4594;50.994;7.126;2024-03-29T13:30:14;16.10;60.20
9118;DHT22;4594;50.994;7.126;2024-03-29T13:32:41;16.20;61.20
9118;DHT22;4594;50.994;7.126;2024-03-29T13:35:11;16.10;61.10
9118;DHT22;4594;50.994;7.126;2024-03-29T13:37:42;16.20;60.10
9118;DHT22;4594;50.994;7.126;2024-03-29T13:40:11;16.20;59.50
9118;DHT22;4594;50.994;7.126;2024-03-29T13:42:38;16.20;61.80
9118;DHT22;4594;50.994;7.126;2024-03-29T13:45:05;16.20;61.40
9118;DHT22;4594;50.994;7.126;2024-03-29T13:47:40;16.20;61.10
9118;DHT22;4594;50.994;7.126;2024-03-29T13:50:07;16.20;60.00
9118;DHT22;4594;50.994;7.126;2024-03-29T13:52:35;16.20;62.40
9118;DHT22;4594;50.994;7.126;2024-03-29T13:55:02;16.20;62.70
9118;DHT22;4594;50.994;7.126;2024-03-29T13:57:29;16.20;63.00
9118;DHT22;4594;50.994;7.126;2024-03-29T13:59:56;16.30;63.60
9118;DHT22;4594;50.994;7.126;2024-03-29T14:02:22;16.30;64.20
9118;DHT22;4594;50.994;7.126;2024-03-29T14:04:49;17.00;65.30
9118;DHT22;4594;50.994;7.126;2024-03-29T14:07:15;16.50;64.70
9118;DHT22;4594;50.994;7.126;2024-03-29T14:09:44;16.50;65.00
9118;DHT22;4594;50.994;7.126;2024-03-29T14:12:11;16.50;64.50
9118;DHT22;4594;50.994;7.126;2024-03-29T14:14:38;16.60;64.70
9118;DHT22;4594;50.994;7.126;2024-03-29T14:17:04;16.70;64.90
9118;DHT22;4594;50.994;7.126;2024-03-29T14:19:33;16.90;65.20
9118;DHT22;4594;50.994;7.126;2024-03-29T14:22:03;16.80;63.90
9118;DHT22;4594;50.994;7.126;2024-03-29T14:24:30;16.80;62.50
9118;DHT22;4594;50.994;7.126;2024-03-29T14:26:58;16.80;63.50
9118;DHT22;4594;50.994;7.126;2024-03-29T14:29:24;16.90;63.20
9118;DHT22;4594;50.994;7.126;2024-03-29T14:31:50;16.90;63.30
9118;DHT22;4594;50.994;7.126;2024-03-29T14:34:17;17.00;63.70
9118;DHT22;4594;50.994;7.126;2024-03-29T14:36:44;17.00;63.60
9118;DHT22;4594;50.994;7.126;2024-03-29T14:39:10;17.00;64.00
9118;DHT22;4594;50.994;7.126;2024-03-29T14:41:41;17.00;64.00
9118;DHT22;4594;50.994;7.126;2024-03-29T14:44:08;17.00;61.80
9118;DHT22;4594;50.994;7.126;2024-03-29T14:46:35;17.30;63.30
9118;DHT22;4594;50.994;7.126;2024-03-29T14:49:04;17.10;62.90
9118;DHT22;4594;50.994;7.126;2024-03-29T14:51:35;17.10;62.40
9118;DHT22;4594;50.994;7.126;2024-03-29T14:54:01;17.20;62.40
9118;DHT22;4594;50.994;7.126;2024-03-29T14:56:29;17.20;62.20
9118;DHT22;4594;50.994;7.126;2024-03-29T14:59:03;17.30;62.10
9118;DHT22;4594;50.994;7.126;2024-03-29T15:01:31;17.20;61.50
9118;DHT22;4594;50.994;7.126;2024-03-29T15:03:58;17.30;61.50
9118;DHT22;4594;50.994;7.126;2024-03-29T15:06:24;17.30;61.60
9118;DHT22;4594;50.994;7.126;2024-03-29T15:08:54;17.20;61.70
9118;DHT22;4594;50.994;7.126;2024-03-29T15:11:22;17.40;60.40
9118;DHT22;4594;50.994;7.126;2024-03-29T15:13:49;17.40;61.70
9118;DHT22;4594;50.994;7.126;2024-03-29T15:16:15;17.40;61.70
9118;DHT22;4594;50.994;7.126;2024-03-29T15:18:41;17.40;60.70
9118;DHT22;4594;50.994;7.126;2024-03-29T15:21:08;17.40;60.50
9118;DHT22;4594;50.994;7.126;2024-03-29T15:23:34;17.40;60.20
9118;DHT22;4594;50.994;7.126;2024-03-29T15:26:01;17.50;60.40
9118;DHT22;4594;50.994;7.126;2024-03-29T15:28:30;17.50;60.20
9118;DHT22;4594;50.994;7.126;2024-03-29T15:31:19;17.40;60.00
9118;DHT22;4594;50.994;7.126;2024-03-29T15:33:47;17.50;59.70
9118;DHT22;4594;50.994;7.126;2024-03-29T15:36:15;17.40;59.50
9118;DHT22;4594;50.994;7.126;2024-03-29T15:38:41;17.40;60.00
9118;DHT22;4594;50.994;7.126;2024-03-29T15:41:07;17.50;60.10
9118;DHT22;4594;50.994;7.126;2024-03-29T15:43:34;17.30;59.80
9118;DHT22;4594;50.994;7.126;2024-03-29T15:46:04;17.30;60.20
9118;DHT22;4594;50.994;7.126;2024-03-29T15:48:30;17.30;60.70
9118;DHT22;4594;50.994;7.126;2024-03-29T15:50:56;17.30;61.00
9118;DHT22;4594;50.994;7.126;2024-03-29T15:53:22;17.20;60.90
9118;DHT22;4594;50.994;7.126;2024-03-29T15:55:48;17.20;60.50
9118;DHT22;4594;50.994;7.126;2024-03-29T15:58:14;17.10;61.00
9118;DHT22;4594;50.994;7.126;2024-03-29T16:00:41;17.10;60.70
9118;DHT22;4594;50.994;7.126;2024-03-29T16:03:10;17.00;60.30
9118;DHT22;4594;50.994;7.126;2024-03-29T16:05:39;17.00;60.70
9118;DHT22;4594;50.994;7.126;2024-03-29T16:08:06;17.00;61.10